sensor_id;sensor_type;location;lat;lon;timestamp;P1;durP1;ratioP1;P2;durP2;ratioP2
1346;SDS011;667;48.796;9.480;2023-05-10T00:00:00;1.87;;;1.70;;
1346;SDS011;667;48.796;9.480;2023-05-10T00:02:25;1.83;;;1.50;;
1346;SDS011;667;48.796;9.480;2023-05-10T00:04:51;1.63;;;1.53;;
1346;SDS011;667;48.796;9.480;2023-05-10T00:07:17;1.93;;;1.83;;
1346;SDS011;667;48.796;9.480;2023-05-10T00:09:43;1.70;;;1.60;;
1346;SDS011;667;48.796;9.480;2023-05-10T00:12:08;3.00;;;1.70;;
1346;SDS011;667;48.796;9.480;2023-05-10T00:14:34;1.67;;;1.50;;
1346;SDS011;667;48.796;9.480;2023-05-10T00:17:06;3.00;;;1.23;;
1346;SDS011;667;48.796;9.480;2023-05-10T00:19:31;1.50;;;1.40;;
1346;SDS011;667;48.796;9.480;2023-05-10T00:21:57;1.37;;;1.27;;
1346;SDS011;667;48.796;9.480;2023-05-10T00:24:22;1.77;;;1.40;;
1346;SDS011;667;48.796;9.480;2023-05-10T00:26:48;1.97;;;1.60;;
1346;SDS011;667;48.796;9.480;2023-05-10T00:29:16;1.30;;;1.20;;
1346;SDS011;667;48.796;9.480;2023-05-10T00:31:42;1.90;;;1.80;;
1346;SDS011;667;48.796;9.480;2023-05-10T00:34:08;2.23;;;1.50;;
1346;SDS011;667;48.796;9.480;2023-05-10T00:36:33;1.00;;;1.00;;
1346;SDS011;667;48.796;9.480;2023-05-10T00:38:59;1.20;;;0.80;;
1346;SDS011;667;48.796;9.480;2023-05-10T00:41:24;1.77;;;0.80;;
1346;SDS011;667;48.796;9.480;2023-05-10T00:43:50;0.80;;;0.67;;
1346;SDS011;667;48.796;9.480;2023-05-10T00:46:15;1.90;;;0.60;;
1346;SDS011;667;48.796;9.480;2023-05-10T00:48:42;1.10;;;0.77;;
1346;SDS011;667;48.796;9.480;2023-05-10T00:51:09;1.40;;;0.73;;
1346;SDS011;667;48.796;9.480;2023-05-10T00:53:35;1.13;;;1.03;;
1346;SDS011;667;48.796;9.480;2023-05-10T00:56:03;0.80;;;0.60;;
1346;SDS011;667;48.796;9.480;2023-05-10T00:58:30;1.10;;;0.60;;
1346;SDS011;667;48.796;9.480;2023-05-10T01:00:56;1.40;;;0.53;;
1346;SDS011;667;48.796;9.480;2023-05-10T01:03:22;1.57;;;0.60;;
1346;SDS011;667;48.796;9.480;2023-05-10T01:05:48;0.70;;;0.57;;
1346;SDS011;667;48.796;9.480;2023-05-10T01:08:16;0.83;;;0.60;;
1346;SDS011;667;48.796;9.480;2023-05-10T01:10:42;1.60;;;0.93;;
1346;SDS011;667;48.796;9.480;2023-05-10T01:13:09;0.90;;;0.73;;
1346;SDS011;667;48.796;9.480;2023-05-10T01:15:35;0.67;;;0.60;;
1346;SDS011;667;48.796;9.480;2023-05-10T01:18:03;0.70;;;0.70;;
1346;SDS011;667;48.796;9.480;2023-05-10T01:20:35;1.57;;;0.60;;
1346;SDS011;667;48.796;9.480;2023-05-10T01:36:29;0.87;;;0.57;;
1346;SDS011;667;48.796;9.480;2023-05-10T01:44:24;0.70;;;0.60;;
1346;SDS011;667;48.796;9.480;2023-05-10T01:47:14;3.33;;;0.60;;
1346;SDS011;667;48.796;9.480;2023-05-10T01:49:50;1.30;;;0.67;;
1346;SDS011;667;48.796;9.480;2023-05-10T01:52:18;2.30;;;0.67;;
1346;SDS011;667;48.796;9.480;2023-05-10T01:54:52;0.70;;;0.60;;
1346;SDS011;667;48.796;9.480;2023-05-10T01:57:20;0.50;;;0.40;;
1346;SDS011;667;48.796;9.480;2023-05-10T01:59:50;0.50;;;0.50;;
1346;SDS011;667;48.796;9.480;2023-05-10T02:02:20;0.80;;;0.63;;
1346;SDS011;667;48.796;9.480;2023-05-10T02:04:47;0.93;;;0.57;;
1346;SDS011;667;48.796;9.480;2023-05-10T02:07:15;0.60;;;0.60;;
1346;SDS011;667;48.796;9.480;2023-05-10T02:09:42;0.70;;;0.70;;
1346;SDS011;667;48.796;9.480;2023-05-10T02:12:12;0.70;;;0.70;;
1346;SDS011;667;48.796;9.480;2023-05-10T02:14:38;0.90;;;0.70;;
1346;SDS011;667;48.796;9.480;2023-05-10T02:17:06;0.60;;;0.60;;
1346;SDS011;667;48.796;9.480;2023-05-10T02:19:33;1.13;;;0.80;;
1346;SDS011;667;48.796;9.480;2023-05-10T02:22:02;1.30;;;0.80;;
1346;SDS011;667;48.796;9.480;2023-05-10T02:24:29;0.90;;;0.67;;
1346;SDS011;667;48.796;9.480;2023-05-10T02:26:55;1.00;;;0.90;;
1346;SDS011;667;48.796;9.480;2023-05-10T02:29:23;0.77;;;0.70;;
1346;SDS011;667;48.796;9.480;2023-05-10T02:31:51;0.60;;;0.60;;
1346;SDS011;667;48.796;9.480;2023-05-10T02:34:19;2.50;;;0.60;;
1346;SDS011;667;48.796;9.480;2023-05-10T02:36:46;0.70;;;0.70;;
1346;SDS011;667;48.796;9.480;2023-05-10T02:39:12;0.60;;;0.60;;
1346;SDS011;667;48.796;9.480;2023-05-10T02:41:40;2.23;;;0.70;;
1346;SDS011;667;48.796;9.480;2023-05-10T02:44:07;1.53;;;0.70;;
1346;SDS011;667;48.796;9.480;2023-05-10T02:46:34;0.70;;;0.70;;
1346;SDS011;667;48.796;9.480;2023-05-10T02:49:00;1.23;;;0.70;;
1346;SDS011;667;48.796;9.480;2023-05-10T02:51:27;2.47;;;1.10;;
1346;SDS011;667;48.796;9.480;2023-05-10T02:53:56;0.80;;;0.80;;
1346;SDS011;667;48.796;9.480;2023-05-10T02:56:25;1.77;;;0.90;;
1346;SDS011;667;48.796;9.480;2023-05-10T02:58:55;0.70;;;0.70;;
1346;SDS011;667;48.796;9.480;2023-05-10T03:01:21;1.67;;;0.70;;
1346;SDS011;667;48.796;9.480;2023-05-10T03:03:47;1.33;;;0.90;;
1346;SDS011;667;48.796;9.480;2023-05-10T03:06:12;1.20;;;1.10;;
1346;SDS011;667;48.796;9.480;2023-05-10T03:08:38;1.10;;;0.97;;
1346;SDS011;667;48.796;9.480;2023-05-10T03:14:00;0.97;;;0.70;;
1346;SDS011;667;48.796;9.480;2023-05-10T03:16:56;1.67;;;0.90;;
1346;SDS011;667;48.796;9.480;2023-05-10T03:19:32;1.43;;;0.87;;
1346;SDS011;667;48.796;9.480;2023-05-10T03:22:08;2.83;;;0.80;;
1346;SDS011;667;48.796;9.480;2023-05-10T03:24:38;0.73;;;0.60;;
1346;SDS011;667;48.796;9.480;2023-05-10T03:27:06;0.60;;;0.53;;
1346;SDS011;667;48.796;9.480;2023-05-10T03:29:33;0.80;;;0.70;;
1346;SDS011;667;48.796;9.480;2023-05-10T03:31:58;0.87;;;0.87;;
1346;SDS011;667;48.796;9.480;2023-05-10T03:34:25;0.73;;;0.73;;
1346;SDS011;667;48.796;9.480;2023-05-10T03:36:50;1.57;;;0.83;;
1346;SDS011;667;48.796;9.480;2023-05-10T03:39:16;2.20;;;0.97;;
1346;SDS011;667;48.796;9.480;2023-05-10T03:41:42;0.90;;;0.70;;
1346;SDS011;667;48.796;9.480;2023-05-10T03:44:07;1.83;;;1.10;;
1346;SDS011;667;48.796;9.480;2023-05-10T03:46:33;0.80;;;0.80;;
1346;SDS011;667;48.796;9.480;2023-05-10T03:48:59;1.10;;;0.80;;
1346;SDS011;667;48.796;9.480;2023-05-10T03:51:24;0.77;;;0.77;;
1346;SDS011;667;48.796;9.480;2023-05-10T03:53:53;0.70;;;0.70;;
1346;SDS011;667;48.796;9.480;2023-05-10T03:56:19;1.57;;;0.80;;
1346;SDS011;667;48.796;9.480;2023-05-10T03:58:45;0.80;;;0.80;;
1346;SDS011;667;48.796;9.480;2023-05-10T04:01:11;1.73;;;0.70;;
1346;SDS011;667;48.796;9.480;2023-05-10T04:03:37;0.97;;;0.90;;
1346;SDS011;667;48.796;9.480;2023-05-10T04:06:03;1.33;;;0.80;;
1346;SDS011;667;48.796;9.480;2023-05-10T04:08:29;0.93;;;0.83;;
1346;SDS011;667;48.796;9.480;2023-05-10T04:11:04;1.47;;;1.10;;
1346;SDS011;667;48.796;9.480;2023-05-10T04:13:32;1.57;;;0.70;;
1346;SDS011;667;48.796;9.480;2023-05-10T04:15:58;0.80;;;0.80;;
1346;SDS011;667;48.796;9.480;2023-05-10T04:18:24;3.63;;;0.80;;
1346;SDS011;667;48.796;9.480;2023-05-10T04:20:50;0.87;;;0.80;;
1346;SDS011;667;48.796;9.480;2023-05-10T04:23:15;1.60;;;1.00;;
1346;SDS011;667;48.796;9.480;2023-05-10T04:25:43;2.70;;;1.30;;
1346;SDS011;667;48.796;9.480;2023-05-10T04:28:09;0.80;;;0.80;;
1346;SDS011;667;48.796;9.480;2023-05-10T04:30:35;1.30;;;1.07;;
1346;SDS011;667;48.796;9.480;2023-05-10T04:33:01;0.80;;;0.80;;
1346;SDS011;667;48.796;9.480;2023-05-10T04:35:27;2.23;;;1.10;;
1346;SDS011;667;48.796;9.480;2023-05-10T04:37:53;1.03;;;0.90;;
1346;SDS011;667;48.796;9.480;2023-05-10T04:40:18;1.90;;;1.20;;
1346;SDS011;667;48.796;9.480;2023-05-10T04:42:44;3.20;;;2.93;;
1346;SDS011;667;48.796;9.480;2023-05-10T04:45:10;1.53;;;1.30;;
1346;SDS011;667;48.796;9.480;2023-05-10T04:47:36;4.90;;;1.40;;
1346;SDS011;667;48.796;9.480;2023-05-10T04:50:02;3.33;;;1.20;;
1346;SDS011;667;48.796;9.480;2023-05-10T04:52:31;1.40;;;1.30;;
1346;SDS011;667;48.796;9.480;2023-05-10T04:54:57;2.17;;;1.77;;
1346;SDS011;667;48.796;9.480;2023-05-10T04:57:22;1.43;;;1.33;;
1346;SDS011;667;48.796;9.480;2023-05-10T04:59:48;1.63;;;1.53;;
1346;SDS011;667;48.796;9.480;2023-05-10T05:02:13;2.00;;;1.53;;
1346;SDS011;667;48.796;9.480;2023-05-10T05:04:39;1.40;;;1.30;;
1346;SDS011;667;48.796;9.480;2023-05-10T05:07:04;1.30;;;1.20;;
1346;SDS011;667;48.796;9.480;2023-05-10T05:09:30;1.43;;;1.30;;
1346;SDS011;667;48.796;9.480;2023-05-10T05:11:57;1.07;;;0.97;;
1346;SDS011;667;48.796;9.480;2023-05-10T05:14:22;1.47;;;1.10;;
1346;SDS011;667;48.796;9.480;2023-05-10T05:16:50;1.90;;;1.10;;
1346;SDS011;667;48.796;9.480;2023-05-10T05:19:18;1.63;;;1.40;;
1346;SDS011;667;48.796;9.480;2023-05-10T05:21:44;2.60;;;1.10;;
1346;SDS011;667;48.796;9.480;2023-05-10T05:24:10;1.67;;;1.10;;
1346;SDS011;667;48.796;9.480;2023-05-10T05:26:37;1.97;;;1.23;;
1346;SDS011;667;48.796;9.480;2023-05-10T05:29:03;1.10;;;1.00;;
1346;SDS011;667;48.796;9.480;2023-05-10T05:31:29;1.43;;;1.33;;
1346;SDS011;667;48.796;9.480;2023-05-10T05:33:54;1.73;;;1.10;;
1346;SDS011;667;48.796;9.480;2023-05-10T05:36:20;1.37;;;0.80;;
1346;SDS011;667;48.796;9.480;2023-05-10T05:38:46;1.33;;;1.23;;
1346;SDS011;667;48.796;9.480;2023-05-10T05:41:12;1.27;;;1.10;;
1346;SDS011;667;48.796;9.480;2023-05-10T05:43:38;2.00;;;1.00;;
1346;SDS011;667;48.796;9.480;2023-05-10T05:46:03;1.23;;;1.13;;
1346;SDS011;667;48.796;9.480;2023-05-10T05:48:29;1.97;;;1.00;;
1346;SDS011;667;48.796;9.480;2023-05-10T05:50:55;5.20;;;0.90;;
1346;SDS011;667;48.796;9.480;2023-05-10T05:53:21;0.93;;;0.80;;
1346;SDS011;667;48.796;9.480;2023-05-10T05:55:54;0.97;;;0.97;;
1346;SDS011;667;48.796;9.480;2023-05-10T05:58:21;2.07;;;1.20;;
1346;SDS011;667;48.796;9.480;2023-05-10T06:00:47;1.23;;;1.07;;
1346;SDS011;667;48.796;9.480;2023-05-10T06:03:13;0.90;;;0.90;;
1346;SDS011;667;48.796;9.480;2023-05-10T06:05:38;1.23;;;1.10;;
1346;SDS011;667;48.796;9.480;2023-05-10T06:08:04;1.47;;;1.37;;
1346;SDS011;667;48.796;9.480;2023-05-10T06:10:30;0.87;;;0.87;;
1346;SDS011;667;48.796;9.480;2023-05-10T06:12:55;9.17;;;1.40;;
1346;SDS011;667;48.796;9.480;2023-05-10T06:15:21;0.90;;;0.90;;
1346;SDS011;667;48.796;9.480;2023-05-10T06:17:47;1.10;;;1.00;;
1346;SDS011;667;48.796;9.480;2023-05-10T06:20:14;1.27;;;1.17;;
1346;SDS011;667;48.796;9.480;2023-05-10T06:22:40;4.90;;;1.07;;
1346;SDS011;667;48.796;9.480;2023-05-10T06:25:05;2.20;;;1.00;;
1346;SDS011;667;48.796;9.480;2023-05-10T06:27:31;3.53;;;1.50;;
1346;SDS011;667;48.796;9.480;2023-05-10T06:29:57;1.37;;;1.27;;
1346;SDS011;667;48.796;9.480;2023-05-10T06:32:25;1.70;;;1.00;;
1346;SDS011;667;48.796;9.480;2023-05-10T06:34:51;2.40;;;1.17;;
1346;SDS011;667;48.796;9.480;2023-05-10T06:37:19;3.03;;;1.33;;
1346;SDS011;667;48.796;9.480;2023-05-10T06:39:45;1.47;;;1.27;;
1346;SDS011;667;48.796;9.480;2023-05-10T06:42:10;2.40;;;1.50;;
1346;SDS011;667;48.796;9.480;2023-05-10T06:44:36;1.13;;;1.10;;
1346;SDS011;667;48.796;9.480;2023-05-10T06:47:01;1.80;;;1.40;;
1346;SDS011;667;48.796;9.480;2023-05-10T06:49:27;1.23;;;1.13;;
1346;SDS011;667;48.796;9.480;2023-05-10T06:51:53;1.30;;;1.20;;
1346;SDS011;667;48.796;9.480;2023-05-10T06:54:18;1.60;;;1.50;;
1346;SDS011;667;48.796;9.480;2023-05-10T06:56:44;1.33;;;1.23;;
1346;SDS011;667;48.796;9.480;2023-05-10T06:59:10;2.13;;;1.60;;
1346;SDS011;667;48.796;9.480;2023-05-10T07:01:35;2.93;;;1.33;;
1346;SDS011;667;48.796;9.480;2023-05-10T07:04:01;1.60;;;1.40;;
1346;SDS011;667;48.796;9.480;2023-05-10T07:06:27;1.97;;;1.80;;
1346;SDS011;667;48.796;9.480;2023-05-10T07:08:53;1.20;;;1.10;;
1346;SDS011;667;48.796;9.480;2023-05-10T07:11:19;1.53;;;1.30;;
1346;SDS011;667;48.796;9.480;2023-05-10T07:13:45;1.70;;;1.20;;
1346;SDS011;667;48.796;9.480;2023-05-10T07:16:11;2.20;;;1.50;;
1346;SDS011;667;48.796;9.480;2023-05-10T07:18:37;1.93;;;1.37;;
1346;SDS011;667;48.796;9.480;2023-05-10T07:21:02;2.30;;;1.30;;
1346;SDS011;667;48.796;9.480;2023-05-10T07:23:28;1.67;;;1.43;;
1346;SDS011;667;48.796;9.480;2023-05-10T07:25:54;3.50;;;1.60;;
1346;SDS011;667;48.796;9.480;2023-05-10T07:28:22;3.90;;;1.53;;
1346;SDS011;667;48.796;9.480;2023-05-10T07:30:49;1.40;;;1.30;;
1346;SDS011;667;48.796;9.480;2023-05-10T07:33:14;1.40;;;1.30;;
1346;SDS011;667;48.796;9.480;2023-05-10T07:35:40;4.13;;;1.70;;
1346;SDS011;667;48.796;9.480;2023-05-10T07:38:07;1.70;;;1.60;;
1346;SDS011;667;48.796;9.480;2023-05-10T07:40:32;1.70;;;1.30;;
1346;SDS011;667;48.796;9.480;2023-05-10T07:42:58;2.07;;;1.30;;
1346;SDS011;667;48.796;9.480;2023-05-10T07:45:26;1.80;;;1.40;;
1346;SDS011;667;48.796;9.480;2023-05-10T07:47:52;1.50;;;1.33;;
1346;SDS011;667;48.796;9.480;2023-05-10T07:50:17;1.73;;;1.50;;
1346;SDS011;667;48.796;9.480;2023-05-10T07:52:43;1.40;;;1.30;;
1346;SDS011;667;48.796;9.480;2023-05-10T07:55:09;1.57;;;1.40;;
1346;SDS011;667;48.796;9.480;2023-05-10T07:57:35;2.73;;;1.73;;
1346;SDS011;667;48.796;9.480;2023-05-10T08:00:01;1.60;;;1.50;;
1346;SDS011;667;48.796;9.480;2023-05-10T08:02:27;2.97;;;1.67;;
1346;SDS011;667;48.796;9.480;2023-05-10T08:04:53;2.43;;;1.40;;
1346;SDS011;667;48.796;9.480;2023-05-10T08:07:18;1.63;;;1.53;;
1346;SDS011;667;48.796;9.480;2023-05-10T08:09:44;2.73;;;1.60;;
1346;SDS011;667;48.796;9.480;2023-05-10T08:12:10;2.13;;;1.60;;
1346;SDS011;667;48.796;9.480;2023-05-10T08:14:35;1.60;;;1.50;;
1346;SDS011;667;48.796;9.480;2023-05-10T08:17:04;2.53;;;1.50;;
1346;SDS011;667;48.796;9.480;2023-05-10T08:19:30;3.40;;;1.77;;
1346;SDS011;667;48.796;9.480;2023-05-10T08:21:55;2.10;;;1.90;;
1346;SDS011;667;48.796;9.480;2023-05-10T08:24:21;2.30;;;1.50;;
1346;SDS011;667;48.796;9.480;2023-05-10T08:26:47;1.33;;;1.23;;
1346;SDS011;667;48.796;9.480;2023-05-10T08:29:13;2.07;;;1.37;;
1346;SDS011;667;48.796;9.480;2023-05-10T08:31:39;1.50;;;1.40;;
1346;SDS011;667;48.796;9.480;2023-05-10T08:34:05;1.30;;;1.20;;
1346;SDS011;667;48.796;9.480;2023-05-10T08:36:30;1.30;;;1.20;;
1346;SDS011;667;48.796;9.480;2023-05-10T08:38:57;1.40;;;1.30;;
1346;SDS011;667;48.796;9.480;2023-05-10T08:41:23;2.33;;;1.60;;
1346;SDS011;667;48.796;9.480;2023-05-10T08:43:51;1.67;;;1.37;;
1346;SDS011;667;48.796;9.480;2023-05-10T08:46:17;1.70;;;1.40;;
1346;SDS011;667;48.796;9.480;2023-05-10T08:48:46;1.70;;;1.60;;
1346;SDS011;667;48.796;9.480;2023-05-10T08:51:13;1.13;;;1.03;;
1346;SDS011;667;48.796;9.480;2023-05-10T08:53:42;1.23;;;1.13;;
1346;SDS011;667;48.796;9.480;2023-05-10T08:56:09;2.17;;;1.20;;
1346;SDS011;667;48.796;9.480;2023-05-10T08:58:35;1.47;;;1.33;;
1346;SDS011;667;48.796;9.480;2023-05-10T09:01:01;1.27;;;1.17;;
1346;SDS011;667;48.796;9.480;2023-05-10T09:03:28;1.30;;;1.20;;
1346;SDS011;667;48.796;9.480;2023-05-10T09:05:54;0.90;;;0.90;;
1346;SDS011;667;48.796;9.480;2023-05-10T09:08:23;2.10;;;1.20;;
1346;SDS011;667;48.796;9.480;2023-05-10T09:10:52;1.37;;;1.27;;
1346;SDS011;667;48.796;9.480;2023-05-10T09:13:19;1.47;;;1.37;;
1346;SDS011;667;48.796;9.480;2023-05-10T09:15:46;1.80;;;1.70;;
1346;SDS011;667;48.796;9.480;2023-05-10T09:18:13;1.40;;;1.20;;
1346;SDS011;667;48.796;9.480;2023-05-10T09:20:38;3.10;;;1.23;;
1346;SDS011;667;48.796;9.480;2023-05-10T09:23:04;1.43;;;1.10;;
1346;SDS011;667;48.796;9.480;2023-05-10T09:25:30;2.77;;;1.40;;
1346;SDS011;667;48.796;9.480;2023-05-10T09:27:58;2.17;;;1.20;;
1346;SDS011;667;48.796;9.480;2023-05-10T09:30:25;1.23;;;1.13;;
1346;SDS011;667;48.796;9.480;2023-05-10T09:32:52;3.13;;;1.40;;
1346;SDS011;667;48.796;9.480;2023-05-10T09:35:20;2.33;;;1.23;;
1346;SDS011;667;48.796;9.480;2023-05-10T09:37:48;3.03;;;1.20;;
1346;SDS011;667;48.796;9.480;2023-05-10T09:42:50;1.87;;;1.10;;
1346;SDS011;667;48.796;9.480;2023-05-10T09:45:20;2.20;;;1.10;;
1346;SDS011;667;48.796;9.480;2023-05-10T09:47:47;1.77;;;1.13;;
1346;SDS011;667;48.796;9.480;2023-05-10T09:50:13;1.00;;;0.90;;
1346;SDS011;667;48.796;9.480;2023-05-10T09:55:14;1.23;;;1.13;;
1346;SDS011;667;48.796;9.480;2023-05-10T09:57:40;2.10;;;1.10;;
1346;SDS011;667;48.796;9.480;2023-05-10T10:00:06;1.50;;;0.87;;
1346;SDS011;667;48.796;9.480;2023-05-10T10:02:33;1.87;;;0.90;;
1346;SDS011;667;48.796;9.480;2023-05-10T10:05:02;2.20;;;1.00;;
1346;SDS011;667;48.796;9.480;2023-05-10T10:07:30;2.07;;;0.90;;
1346;SDS011;667;48.796;9.480;2023-05-10T10:09:56;2.50;;;1.07;;
1346;SDS011;667;48.796;9.480;2023-05-10T10:12:23;2.20;;;0.70;;
1346;SDS011;667;48.796;9.480;2023-05-10T10:14:50;1.70;;;0.80;;
1346;SDS011;667;48.796;9.480;2023-05-10T10:17:16;1.50;;;0.90;;
1346;SDS011;667;48.796;9.480;2023-05-10T10:19:42;1.50;;;0.93;;
1346;SDS011;667;48.796;9.480;2023-05-10T10:22:08;0.83;;;0.73;;
1346;SDS011;667;48.796;9.480;2023-05-10T10:24:36;0.73;;;0.70;;
1346;SDS011;667;48.796;9.480;2023-05-10T10:27:09;0.80;;;0.80;;
1346;SDS011;667;48.796;9.480;2023-05-10T10:32:42;2.80;;;0.80;;
1346;SDS011;667;48.796;9.480;2023-05-10T10:35:31;1.20;;;1.00;;
1346;SDS011;667;48.796;9.480;2023-05-10T10:37:57;1.17;;;0.87;;
1346;SDS011;667;48.796;9.480;2023-05-10T10:40:24;2.20;;;1.03;;
1346;SDS011;667;48.796;9.480;2023-05-10T10:42:54;0.97;;;0.70;;
1346;SDS011;667;48.796;9.480;2023-05-10T10:45:20;0.70;;;0.70;;
1346;SDS011;667;48.796;9.480;2023-05-10T10:47:47;2.40;;;1.10;;
1346;SDS011;667;48.796;9.480;2023-05-10T10:50:13;3.23;;;1.43;;
1346;SDS011;667;48.796;9.480;2023-05-10T10:52:42;1.20;;;1.00;;
1346;SDS011;667;48.796;9.480;2023-05-10T10:55:09;0.90;;;0.90;;
1346;SDS011;667;48.796;9.480;2023-05-10T11:00:36;1.40;;;1.30;;
1346;SDS011;667;48.796;9.480;2023-05-10T11:03:09;1.10;;;1.00;;
1346;SDS011;667;48.796;9.480;2023-05-10T11:05:40;1.90;;;0.90;;
1346;SDS011;667;48.796;9.480;2023-05-10T11:08:28;1.23;;;0.80;;
1346;SDS011;667;48.796;9.480;2023-05-10T11:13:31;1.30;;;0.80;;
1346;SDS011;667;48.796;9.480;2023-05-10T11:15:57;1.23;;;1.00;;
1346;SDS011;667;48.796;9.480;2023-05-10T11:18:35;0.90;;;0.77;;
1346;SDS011;667;48.796;9.480;2023-05-10T11:21:02;0.80;;;0.80;;
1346;SDS011;667;48.796;9.480;2023-05-10T11:23:47;1.67;;;0.80;;
1346;SDS011;667;48.796;9.480;2023-05-10T11:26:17;3.57;;;1.10;;
1346;SDS011;667;48.796;9.480;2023-05-10T11:31:10;1.87;;;1.10;;
1346;SDS011;667;48.796;9.480;2023-05-10T11:36:16;1.00;;;0.93;;
1346;SDS011;667;48.796;9.480;2023-05-10T11:38:50;0.80;;;0.70;;
1346;SDS011;667;48.796;9.480;2023-05-10T11:41:17;1.90;;;0.83;;
1346;SDS011;667;48.796;9.480;2023-05-10T11:43:44;1.37;;;0.60;;
1346;SDS011;667;48.796;9.480;2023-05-10T11:46:12;0.60;;;0.60;;
1346;SDS011;667;48.796;9.480;2023-05-10T11:48:38;1.40;;;0.80;;
1346;SDS011;667;48.796;9.480;2023-05-10T11:51:05;0.67;;;0.67;;
1346;SDS011;667;48.796;9.480;2023-05-10T11:53:32;1.67;;;1.10;;
1346;SDS011;667;48.796;9.480;2023-05-10T11:58:34;2.70;;;0.70;;
1346;SDS011;667;48.796;9.480;2023-05-10T12:01:00;1.40;;;0.80;;
1346;SDS011;667;48.796;9.480;2023-05-10T12:03:27;1.07;;;0.97;;
1346;SDS011;667;48.796;9.480;2023-05-10T12:05:53;0.90;;;0.83;;
1346;SDS011;667;48.796;9.480;2023-05-10T12:08:22;0.80;;;0.80;;
1346;SDS011;667;48.796;9.480;2023-05-10T12:10:51;1.60;;;0.97;;
1346;SDS011;667;48.796;9.480;2023-05-10T12:13:18;1.20;;;0.80;;
1346;SDS011;667;48.796;9.480;2023-05-10T12:15:46;1.20;;;1.10;;
1346;SDS011;667;48.796;9.480;2023-05-10T12:18:12;1.13;;;1.03;;
1346;SDS011;667;48.796;9.480;2023-05-10T12:20:39;1.63;;;0.90;;
1346;SDS011;667;48.796;9.480;2023-05-10T12:23:05;2.50;;;0.90;;
1346;SDS011;667;48.796;9.480;2023-05-10T12:25:34;1.83;;;1.13;;
1346;SDS011;667;48.796;9.480;2023-05-10T12:28:02;1.67;;;0.90;;
1346;SDS011;667;48.796;9.480;2023-05-10T12:30:30;1.43;;;1.00;;
1346;SDS011;667;48.796;9.480;2023-05-10T12:33:01;1.67;;;0.93;;
1346;SDS011;667;48.796;9.480;2023-05-10T12:35:51;2.27;;;0.97;;
1346;SDS011;667;48.796;9.480;2023-05-10T12:40:50;1.20;;;0.83;;
1346;SDS011;667;48.796;9.480;2023-05-10T12:43:15;1.30;;;1.00;;
1346;SDS011;667;48.796;9.480;2023-05-10T12:45:43;1.83;;;0.70;;
1346;SDS011;667;48.796;9.480;2023-05-10T12:48:12;1.73;;;1.00;;
1346;SDS011;667;48.796;9.480;2023-05-10T12:50:38;0.93;;;0.93;;
1346;SDS011;667;48.796;9.480;2023-05-10T12:53:04;1.90;;;0.87;;
1346;SDS011;667;48.796;9.480;2023-05-10T12:55:29;1.00;;;0.80;;
1346;SDS011;667;48.796;9.480;2023-05-10T12:57:55;1.37;;;0.87;;
1346;SDS011;667;48.796;9.480;2023-05-10T13:00:21;1.40;;;1.13;;
1346;SDS011;667;48.796;9.480;2023-05-10T13:02:46;1.33;;;0.87;;
1346;SDS011;667;48.796;9.480;2023-05-10T13:05:12;0.90;;;0.90;;
1346;SDS011;667;48.796;9.480;2023-05-10T13:07:38;2.17;;;1.10;;
1346;SDS011;667;48.796;9.480;2023-05-10T13:10:04;1.33;;;1.23;;
1346;SDS011;667;48.796;9.480;2023-05-10T13:12:31;3.63;;;1.37;;
1346;SDS011;667;48.796;9.480;2023-05-10T13:14:56;1.93;;;1.00;;
1346;SDS011;667;48.796;9.480;2023-05-10T13:17:22;2.23;;;1.00;;
1346;SDS011;667;48.796;9.480;2023-05-10T13:19:50;1.90;;;1.43;;
1346;SDS011;667;48.796;9.480;2023-05-10T13:22:15;1.63;;;1.17;;
1346;SDS011;667;48.796;9.480;2023-05-10T13:24:41;1.97;;;1.17;;
1346;SDS011;667;48.796;9.480;2023-05-10T13:27:06;1.23;;;0.97;;
1346;SDS011;667;48.796;9.480;2023-05-10T13:29:32;1.40;;;1.30;;
1346;SDS011;667;48.796;9.480;2023-05-10T13:31:58;1.17;;;1.10;;
1346;SDS011;667;48.796;9.480;2023-05-10T13:34:24;2.33;;;1.43;;
1346;SDS011;667;48.796;9.480;2023-05-10T13:36:49;3.43;;;1.60;;
1346;SDS011;667;48.796;9.480;2023-05-10T13:39:18;1.00;;;0.90;;
1346;SDS011;667;48.796;9.480;2023-05-10T13:41:45;1.00;;;0.93;;
1346;SDS011;667;48.796;9.480;2023-05-10T13:44:14;3.40;;;1.67;;
1346;SDS011;667;48.796;9.480;2023-05-10T13:46:40;4.87;;;1.43;;
1346;SDS011;667;48.796;9.480;2023-05-10T13:49:08;1.50;;;1.30;;
1346;SDS011;667;48.796;9.480;2023-05-10T13:51:34;1.20;;;1.10;;
1346;SDS011;667;48.796;9.480;2023-05-10T13:54:00;1.97;;;1.20;;
1346;SDS011;667;48.796;9.480;2023-05-10T13:56:29;3.57;;;1.47;;
1346;SDS011;667;48.796;9.480;2023-05-10T13:58:56;2.50;;;1.27;;
1346;SDS011;667;48.796;9.480;2023-05-10T14:01:23;1.33;;;1.23;;
1346;SDS011;667;48.796;9.480;2023-05-10T14:03:48;2.60;;;2.00;;
1346;SDS011;667;48.796;9.480;2023-05-10T14:06:14;3.70;;;1.73;;
1346;SDS011;667;48.796;9.480;2023-05-10T14:08:40;2.07;;;1.87;;
1346;SDS011;667;48.796;9.480;2023-05-10T14:11:05;2.40;;;1.23;;
1346;SDS011;667;48.796;9.480;2023-05-10T14:13:31;1.40;;;1.30;;
1346;SDS011;667;48.796;9.480;2023-05-10T14:15:57;1.30;;;1.20;;
1346;SDS011;667;48.796;9.480;2023-05-10T14:18:25;1.77;;;1.20;;
1346;SDS011;667;48.796;9.480;2023-05-10T14:20:51;1.77;;;0.97;;
1346;SDS011;667;48.796;9.480;2023-05-10T14:23:17;2.20;;;1.30;;
1346;SDS011;667;48.796;9.480;2023-05-10T14:25:44;2.07;;;1.53;;
1346;SDS011;667;48.796;9.480;2023-05-10T14:28:10;3.10;;;1.67;;
1346;SDS011;667;48.796;9.480;2023-05-10T14:30:37;2.57;;;1.53;;
1346;SDS011;667;48.796;9.480;2023-05-10T14:33:02;1.93;;;1.30;;
1346;SDS011;667;48.796;9.480;2023-05-10T14:35:28;2.30;;;1.30;;
1346;SDS011;667;48.796;9.480;2023-05-10T14:37:55;2.37;;;1.30;;
1346;SDS011;667;48.796;9.480;2023-05-10T14:40:24;2.20;;;1.17;;
1346;SDS011;667;48.796;9.480;2023-05-10T14:42:49;1.60;;;1.50;;
1346;SDS011;667;48.796;9.480;2023-05-10T14:45:15;2.17;;;1.40;;
1346;SDS011;667;48.796;9.480;2023-05-10T14:47:41;2.93;;;1.40;;
1346;SDS011;667;48.796;9.480;2023-05-10T14:50:06;2.63;;;1.40;;
1346;SDS011;667;48.796;9.480;2023-05-10T14:52:32;2.17;;;1.33;;
1346;SDS011;667;48.796;9.480;2023-05-10T14:54:58;2.10;;;1.50;;
1346;SDS011;667;48.796;9.480;2023-05-10T14:57:25;1.40;;;1.30;;
1346;SDS011;667;48.796;9.480;2023-05-10T14:59:57;3.40;;;1.60;;
1346;SDS011;667;48.796;9.480;2023-05-10T15:02:22;1.60;;;1.50;;
1346;SDS011;667;48.796;9.480;2023-05-10T15:04:48;1.57;;;1.47;;
1346;SDS011;667;48.796;9.480;2023-05-10T15:07:14;1.97;;;1.27;;
1346;SDS011;667;48.796;9.480;2023-05-10T15:09:40;4.40;;;1.40;;
1346;SDS011;667;48.796;9.480;2023-05-10T15:12:06;2.43;;;2.00;;
1346;SDS011;667;48.796;9.480;2023-05-10T15:14:31;2.07;;;1.30;;
1346;SDS011;667;48.796;9.480;2023-05-10T15:16:57;2.13;;;1.30;;
1346;SDS011;667;48.796;9.480;2023-05-10T15:19:24;2.37;;;1.30;;
1346;SDS011;667;48.796;9.480;2023-05-10T15:21:49;1.43;;;1.33;;
1346;SDS011;667;48.796;9.480;2023-05-10T15:24:15;1.70;;;1.30;;
1346;SDS011;667;48.796;9.480;2023-05-10T15:26:40;2.10;;;1.20;;
1346;SDS011;667;48.796;9.480;2023-05-10T15:29:06;1.47;;;1.37;;
1346;SDS011;667;48.796;9.480;2023-05-10T15:31:31;2.70;;;1.30;;
1346;SDS011;667;48.796;9.480;2023-05-10T15:33:59;2.77;;;1.43;;
1346;SDS011;667;48.796;9.480;2023-05-10T15:36:25;4.40;;;1.50;;
1346;SDS011;667;48.796;9.480;2023-05-10T15:38:51;3.30;;;1.60;;
1346;SDS011;667;48.796;9.480;2023-05-10T15:41:17;1.93;;;1.43;;
1346;SDS011;667;48.796;9.480;2023-05-10T15:43:43;2.73;;;1.57;;
1346;SDS011;667;48.796;9.480;2023-05-10T15:46:08;4.40;;;1.50;;
1346;SDS011;667;48.796;9.480;2023-05-10T15:48:34;1.53;;;1.23;;
1346;SDS011;667;48.796;9.480;2023-05-10T15:51:00;1.90;;;1.40;;
1346;SDS011;667;48.796;9.480;2023-05-10T15:53:26;2.73;;;1.30;;
1346;SDS011;667;48.796;9.480;2023-05-10T15:55:51;1.80;;;1.53;;
1346;SDS011;667;48.796;9.480;2023-05-10T15:58:19;5.43;;;1.47;;
1346;SDS011;667;48.796;9.480;2023-05-10T16:00:44;1.50;;;1.40;;
1346;SDS011;667;48.796;9.480;2023-05-10T16:03:10;2.53;;;1.73;;
1346;SDS011;667;48.796;9.480;2023-05-10T16:05:36;1.60;;;1.30;;
1346;SDS011;667;48.796;9.480;2023-05-10T16:08:02;2.03;;;1.20;;
1346;SDS011;667;48.796;9.480;2023-05-10T16:10:29;2.60;;;1.50;;
1346;SDS011;667;48.796;9.480;2023-05-10T16:12:57;2.80;;;1.47;;